createdAt,value
2018-08-24T00:01:27.950Z,90.99
2018-08-24T00:03:56.254Z,90.56
2018-08-24T00:06:24.379Z,91.91
2018-08-24T00:08:52.642Z,90.88
2018-08-24T00:11:21.585Z,91.84
2018-08-24T00:13:49.683Z,92.10
2018-08-24T00:16:22.130Z,91.93
2018-08-24T00:18:50.234Z,92.94
2018-08-24T00:21:18.294Z,91.45
2018-08-24T00:23:46.347Z,90.26
2018-08-24T00:26:14.557Z,90.08
2018-08-24T00:28:47.759Z,91.50
2018-08-24T00:31:15.834Z,88.95
2018-08-24T00:33:48.067Z,89.01
2018-08-24T00:36:17.030Z,87.95
2018-08-24T00:38:45.207Z,91.07
2018-08-24T00:41:13.637Z,90.75
2018-08-24T00:43:41.670Z,91.42
2018-08-24T00:46:10.867Z,91.53
2018-08-24T00:48:39.267Z,92.53
2018-08-24T00:51:08.679Z,89.74
2018-08-24T00:53:38.692Z,90.97
2018-08-24T00:56:07.378Z,91.63
2018-08-24T00:58:36.694Z,90.45
2018-08-24T01:01:05.276Z,90.68
2018-08-24T01:03:33.420Z,90.91
2018-08-24T01:06:01.494Z,91.65
2018-08-24T01:08:30.094Z,90.30
2018-08-24T01:10:58.279Z,91.20
2018-08-24T01:13:26.373Z,89.92
2018-08-24T01:15:59.829Z,92.27
2018-08-24T01:18:33.658Z,91.02
2018-08-24T01:21:02.228Z,91.04
2018-08-24T01:23:32.174Z,91.71
2018-08-24T01:26:00.718Z,91.52
2018-08-24T01:28:29.499Z,91.04
2018-08-24T01:31:03.173Z,90.50
2018-08-24T01:33:31.923Z,90.01
2018-08-24T01:36:00.007Z,90.31
2018-08-24T01:38:28.135Z,89.73
2018-08-24T01:40:56.244Z,90.75
2018-08-24T01:43:24.403Z,91.08
2018-08-24T01:45:57.997Z,90.14
2018-08-24T01:48:26.116Z,89.16
2018-08-24T01:50:54.158Z,89.05
2018-08-24T01:53:22.239Z,88.85
2018-08-24T01:55:50.296Z,89.77
2018-08-24T01:58:18.350Z,89.67
2018-08-24T02:00:46.454Z,90.04
2018-08-24T02:03:14.470Z,90.12
2018-08-24T02:05:42.526Z,90.94
2018-08-24T02:08:10.580Z,90.91
2018-08-24T02:10:38.728Z,89.89
2018-08-24T02:13:12.178Z,90.92
2018-08-24T02:15:46.245Z,91.04
2018-08-24T02:18:19.642Z,89.37
2018-08-24T02:20:52.978Z,88.74
2018-08-24T02:23:21.059Z,89.39
2018-08-24T02:25:49.162Z,89.12
2018-08-24T02:28:17.272Z,88.96
2018-08-24T02:30:45.339Z,88.53
2018-08-24T02:33:14.419Z,88.58
2018-08-24T02:35:42.579Z,89.15
2018-08-24T02:38:10.723Z,89.40
2018-08-24T02:40:38.840Z,90.59
2018-08-24T02:43:06.911Z,89.62
2018-08-24T02:45:34.994Z,89.60
2018-08-24T02:48:03.170Z,90.11
2018-08-24T02:50:31.283Z,89.45
2018-08-24T02:52:59.599Z,90.86
2018-08-24T02:55:27.834Z,90.88
2018-08-24T02:57:55.909Z,91.46
2018-08-24T03:00:24.018Z,90.92
2018-08-24T03:02:52.180Z,91.44
2018-08-24T03:05:20.349Z,91.44
2018-08-24T03:07:48.355Z,90.22
2018-08-24T03:10:16.470Z,91.28
2018-08-24T03:12:44.538Z,90.39
2018-08-24T03:15:12.651Z,90.27
2018-08-24T03:17:46.062Z,91.22
2018-08-24T03:20:14.539Z,90.05
2018-08-24T03:22:42.649Z,90.51
2018-08-24T03:25:10.882Z,90.66
2018-08-24T03:27:39.030Z,92.17
2018-08-24T03:30:07.131Z,90.81
2018-08-24T03:32:35.213Z,91.05
2018-08-24T03:35:03.367Z,90.33
2018-08-24T03:37:31.547Z,91.75
2018-08-24T03:39:59.754Z,90.84
2018-08-24T03:42:27.885Z,91.40
2018-08-24T03:44:55.985Z,91.48
2018-08-24T03:47:24.082Z,91.33
2018-08-24T03:49:53.215Z,90.48
2018-08-24T03:52:21.381Z,91.42
2018-08-24T03:54:49.465Z,91.26
2018-08-24T03:57:17.544Z,90.54
2018-08-24T03:59:45.660Z,90.07
2018-08-24T04:02:14.661Z,90.44
2018-08-24T04:04:42.786Z,91.37
2018-08-24T04:07:10.951Z,91.47
2018-08-24T04:09:39.230Z,91.06
2018-08-24T04:12:07.358Z,91.46
2018-08-24T04:14:35.420Z,90.51
2018-08-24T04:17:08.868Z,91.00
2018-08-24T04:19:37.163Z,91.22
2018-08-24T04:22:05.134Z,92.77
2018-08-24T04:24:33.215Z,92.06
2018-08-24T04:27:01.349Z,91.09
2018-08-24T04:29:29.508Z,91.93
2018-08-24T04:31:57.595Z,90.36
2018-08-24T04:34:25.761Z,91.88
2018-08-24T04:36:53.832Z,92.05
2018-08-24T04:39:22.014Z,92.59
2018-08-24T04:41:50.134Z,91.95
2018-08-24T04:44:18.215Z,91.82
2018-08-24T04:46:46.387Z,92.10
2018-08-24T04:49:14.941Z,93.04
2018-08-24T04:51:43.066Z,93.06
2018-08-24T04:54:11.159Z,92.85
2018-08-24T04:56:39.266Z,91.50
2018-08-24T04:59:07.364Z,92.01
2018-08-24T05:01:35.440Z,90.28
2018-08-24T05:04:03.496Z,90.62
2018-08-24T05:06:31.572Z,91.10
2018-08-24T05:08:59.615Z,90.90
2018-08-24T05:11:27.705Z,91.77
2018-08-24T05:13:55.777Z,91.51
2018-08-24T05:16:23.909Z,91.25
2018-08-24T05:18:52.021Z,91.26
2018-08-24T05:21:20.170Z,91.48
2018-08-24T05:23:48.224Z,91.44
2018-08-24T05:26:16.324Z,91.94
2018-08-24T05:28:45.343Z,92.07
2018-08-24T05:31:13.558Z,92.07
2018-08-24T05:33:41.726Z,90.90
2018-08-24T05:36:09.920Z,90.53
2018-08-24T05:38:38.053Z,90.22
2018-08-24T05:41:06.735Z,88.88
2018-08-24T05:43:34.957Z,89.16
2018-08-24T05:46:03.055Z,89.54
2018-08-24T05:48:31.179Z,89.93
2018-08-24T05:50:59.258Z,90.67
2018-08-24T05:53:27.404Z,89.20
2018-08-24T05:55:55.794Z,88.24
2018-08-24T05:58:24.061Z,88.72
2018-08-24T06:00:52.279Z,88.39
2018-08-24T06:03:20.526Z,89.07
2018-08-24T06:05:54.371Z,88.40
2018-08-24T06:08:22.459Z,88.70
2018-08-24T06:10:50.602Z,87.22
2018-08-24T06:13:20.193Z,87.00
2018-08-24T06:15:49.736Z,85.38
2018-08-24T06:18:17.856Z,84.39
2018-08-24T06:20:45.959Z,84.72
2018-08-24T06:23:14.642Z,84.18
2018-08-24T06:25:42.734Z,82.25
2018-08-24T06:28:10.962Z,81.67
2018-08-24T06:30:39.126Z,81.48
2018-08-24T06:33:07.242Z,80.00
2018-08-24T06:35:35.311Z,79.95
2018-08-24T06:38:03.427Z,79.20
2018-08-24T06:40:31.506Z,78.84
2018-08-24T06:42:59.608Z,77.38
2018-08-24T06:45:27.707Z,77.96
2018-08-24T06:47:55.982Z,77.37
2018-08-24T06:50:25.181Z,77.04
2018-08-24T06:52:53.364Z,76.51
2018-08-24T06:55:21.434Z,77.30
2018-08-24T06:57:49.893Z,76.09
2018-08-24T07:00:23.387Z,75.28
2018-08-24T07:02:51.531Z,75.85
2018-08-24T07:05:19.958Z,75.73
2018-08-24T07:07:48.534Z,73.54
2018-08-24T07:10:16.657Z,74.06
2018-08-24T07:12:45.487Z,72.54
2018-08-24T07:15:13.537Z,73.68
2018-08-24T07:17:46.927Z,74.57
2018-08-24T07:25:12.829Z,73.98
2018-08-24T07:27:40.916Z,73.15
2018-08-24T07:30:09.011Z,73.02
2018-08-24T07:32:37.188Z,70.98
2018-08-24T07:35:05.309Z,69.25
2018-08-24T07:37:33.359Z,69.83
2018-08-24T07:40:01.453Z,69.89
2018-08-24T07:42:35.535Z,69.99
2018-08-24T07:45:03.616Z,70.51
2018-08-24T07:47:31.707Z,69.91
2018-08-24T07:49:59.790Z,70.07
2018-08-24T07:52:28.112Z,69.96
2018-08-24T07:54:56.213Z,69.66
2018-08-24T07:57:24.296Z,70.37
2018-08-24T07:59:52.367Z,70.33
2018-08-24T08:02:25.138Z,70.42
2018-08-24T08:04:53.506Z,70.17
2018-08-24T08:07:21.688Z,70.21
2018-08-24T08:09:49.938Z,70.48
2018-08-24T08:12:18.034Z,70.04
2018-08-24T08:14:51.479Z,70.03
2018-08-24T08:17:19.587Z,69.08
2018-08-24T08:19:47.714Z,70.34
2018-08-24T08:22:16.016Z,69.84
2018-08-24T08:24:44.221Z,70.25
2018-08-24T08:27:12.282Z,69.67
2018-08-24T08:29:46.171Z,68.92
2018-08-24T08:32:14.552Z,69.14
2018-08-24T08:34:48.191Z,69.31
2018-08-24T08:37:16.315Z,68.61
2018-08-24T08:39:44.484Z,69.98
2018-08-24T08:42:12.584Z,69.70
2018-08-24T08:44:40.694Z,68.17
2018-08-24T08:47:08.914Z,69.49
2018-08-24T08:49:37.207Z,69.46
2018-08-24T08:52:05.350Z,67.12
2018-08-24T08:54:33.635Z,67.26
2018-08-24T08:57:01.782Z,66.70
2018-08-24T08:59:30.000Z,65.59
2018-08-24T09:01:58.167Z,65.69
2018-08-24T09:04:26.277Z,66.40
2018-08-24T09:06:54.383Z,65.14
2018-08-24T09:09:22.521Z,64.91
2018-08-24T09:11:50.631Z,65.02
2018-08-24T09:14:18.786Z,68.48
2018-08-24T09:16:46.903Z,70.76
2018-08-24T09:19:21.222Z,71.59
2018-08-24T09:21:54.657Z,68.01
2018-08-24T09:24:28.207Z,67.27
2018-08-24T09:27:01.951Z,65.53
2018-08-24T09:29:30.060Z,64.52
2018-08-24T09:31:59.623Z,63.08
2018-08-24T09:34:27.718Z,62.04
2018-08-24T09:36:55.822Z,62.46
2018-08-24T09:39:27.942Z,64.26
2018-08-24T09:41:58.363Z,66.34
2018-08-24T09:44:26.461Z,65.93
2018-08-24T09:47:00.112Z,66.76
2018-08-24T09:49:39.110Z,65.84
2018-08-24T09:52:12.511Z,63.56
2018-08-24T09:54:40.590Z,63.07
2018-08-24T09:57:08.735Z,67.28
2018-08-24T09:59:36.814Z,81.39
2018-08-24T10:02:10.192Z,80.89
2018-08-24T10:04:43.525Z,80.83
2018-08-24T10:07:17.014Z,83.56
2018-08-24T10:14:42.297Z,83.11
2018-08-24T10:17:10.498Z,76.84
2018-08-24T10:19:38.567Z,75.33
2018-08-24T10:22:06.699Z,74.79
2018-08-24T10:24:34.926Z,72.47
2018-08-24T10:27:02.992Z,71.48
2018-08-24T10:29:31.100Z,73.73
2018-08-24T10:31:59.261Z,71.33
2018-08-24T10:34:27.352Z,71.11
2018-08-24T10:36:55.397Z,70.93
2018-08-24T10:39:24.344Z,70.46
2018-08-24T10:41:53.549Z,69.95
2018-08-24T10:44:21.663Z,68.81
2018-08-24T10:46:49.808Z,67.01
2018-08-24T10:49:17.969Z,69.66
2018-08-24T10:51:46.385Z,67.59
2018-08-24T10:54:14.426Z,68.74
2018-08-24T10:56:42.498Z,67.39
2018-08-24T10:59:11.080Z,69.53
2018-08-24T11:01:39.203Z,67.28
2018-08-24T11:04:07.304Z,68.71
2018-08-24T11:06:35.366Z,65.58
2018-08-24T11:09:04.975Z,65.44
2018-08-24T11:11:40.991Z,62.46
2018-08-24T11:14:09.279Z,60.88
2018-08-24T11:16:37.556Z,61.67
2018-08-24T11:19:05.684Z,60.82
2018-08-24T11:21:34.271Z,60.11
2018-08-24T11:24:02.327Z,59.92
2018-08-24T11:26:30.422Z,55.33
2018-08-24T11:28:58.524Z,56.30
2018-08-24T11:31:26.602Z,52.92
2018-08-24T11:33:55.325Z,55.06
2018-08-24T11:36:23.463Z,56.11
2018-08-24T11:38:51.514Z,53.34
2018-08-24T11:41:19.640Z,55.30
2018-08-24T11:43:47.748Z,54.46
2018-08-24T11:46:16.584Z,53.06
2018-08-24T11:48:44.650Z,56.16
2018-08-24T11:51:12.720Z,53.31
2018-08-24T11:53:40.817Z,52.32
2018-08-24T11:56:08.977Z,50.97
2018-08-24T11:58:37.059Z,48.52
2018-08-24T12:01:05.144Z,46.77
2018-08-24T12:03:33.243Z,45.02
2018-08-24T12:06:01.474Z,44.36
2018-08-24T12:08:29.635Z,45.36
2018-08-24T12:10:57.657Z,44.07
2018-08-24T12:13:25.763Z,43.45
2018-08-24T12:15:54.106Z,42.71
2018-08-24T12:18:22.228Z,42.26
2018-08-24T12:20:50.336Z,42.37
2018-08-24T12:23:18.447Z,41.03
2018-08-24T12:25:46.884Z,41.19
2018-08-24T12:28:14.999Z,39.91
2018-08-24T12:30:43.075Z,38.63
2018-08-24T12:33:11.286Z,38.19
2018-08-24T12:35:39.413Z,38.23
2018-08-24T12:38:07.582Z,38.04
2018-08-24T12:40:35.644Z,38.83
2018-08-24T12:43:03.794Z,40.71
2018-08-24T12:45:31.855Z,35.36
2018-08-24T12:48:00.048Z,36.11
2018-08-24T12:50:28.150Z,35.34
2018-08-24T12:52:56.286Z,34.59
2018-08-24T12:55:24.413Z,34.02
2018-08-24T12:57:52.535Z,32.93
2018-08-24T13:00:20.641Z,34.09
2018-08-24T13:02:48.802Z,32.95
2018-08-24T13:05:17.379Z,33.58
2018-08-24T13:07:45.459Z,33.64
2018-08-24T13:10:13.544Z,39.08
2018-08-24T13:12:41.608Z,34.06
2018-08-24T13:15:10.726Z,34.55
2018-08-24T13:17:38.798Z,34.72
2018-08-24T13:20:06.875Z,34.72
2018-08-24T13:22:34.956Z,34.10
2018-08-24T13:25:03.035Z,34.14
2018-08-24T13:27:31.120Z,35.68
2018-08-24T13:29:59.188Z,36.38
2018-08-24T13:32:27.270Z,38.22
2018-08-24T13:34:55.358Z,38.23
2018-08-24T13:37:23.427Z,39.98
2018-08-24T13:39:51.792Z,37.27
2018-08-24T13:42:19.866Z,36.19
2018-08-24T13:44:47.974Z,36.99
2018-08-24T13:47:16.118Z,37.37
2018-08-24T13:49:44.159Z,37.50
2018-08-24T13:52:12.463Z,36.82
2018-08-24T13:54:41.022Z,36.01
2018-08-24T13:57:09.059Z,34.96
2018-08-24T13:59:37.216Z,34.06
2018-08-24T14:02:05.294Z,32.89
2018-08-24T14:04:33.342Z,33.59
2018-08-24T14:07:01.446Z,32.74
2018-08-24T14:09:29.567Z,33.41
2018-08-24T14:11:57.704Z,33.69
2018-08-24T14:14:25.778Z,33.22
2018-08-24T14:16:53.838Z,35.63
2018-08-24T14:19:21.923Z,33.53
2018-08-24T14:21:49.977Z,33.66
2018-08-24T14:24:18.115Z,31.26
2018-08-24T14:26:46.194Z,31.65
2018-08-24T14:29:14.279Z,32.36
2018-08-24T14:31:42.414Z,32.38
2018-08-24T14:34:10.469Z,31.00
2018-08-24T14:36:38.978Z,30.62
2018-08-24T14:39:08.318Z,30.88
2018-08-24T14:41:36.415Z,31.57
2018-08-24T14:44:04.727Z,34.07
2018-08-24T14:46:32.809Z,31.94
2018-08-24T14:49:01.911Z,33.10
2018-08-24T14:51:30.561Z,37.29
2018-08-24T14:53:58.654Z,36.05
2018-08-24T14:56:26.714Z,37.77
2018-08-24T14:58:54.837Z,36.68
2018-08-24T15:01:23.035Z,38.63
2018-08-24T15:03:51.142Z,38.83
2018-08-24T15:06:19.243Z,38.22
2018-08-24T15:08:47.582Z,37.73
2018-08-24T15:11:15.753Z,37.85
2018-08-24T15:13:43.792Z,36.79
2018-08-24T15:16:11.955Z,37.92
2018-08-24T15:18:40.054Z,38.09
2018-08-24T15:21:08.152Z,37.72
2018-08-24T15:23:36.323Z,38.41
2018-08-24T15:26:04.498Z,39.72
2018-08-24T15:28:32.702Z,40.61
2018-08-24T15:31:00.798Z,41.62
2018-08-24T15:33:29.049Z,41.61
2018-08-24T15:35:57.434Z,40.81
2018-08-24T15:38:25.611Z,42.58
2018-08-24T15:40:53.776Z,41.91
2018-08-24T15:43:21.947Z,42.20
2018-08-24T15:45:50.039Z,42.65
2018-08-24T15:48:18.227Z,42.63
2018-08-24T15:50:46.467Z,43.11
2018-08-24T15:53:14.707Z,43.54
2018-08-24T15:55:42.821Z,43.56
2018-08-24T15:58:17.642Z,43.97
2018-08-24T16:00:45.779Z,43.22
2018-08-24T16:03:13.870Z,44.70
2018-08-24T16:05:41.990Z,44.35
2018-08-24T16:08:10.059Z,44.47
2018-08-24T16:10:38.111Z,44.38
2018-08-24T16:13:06.251Z,43.52
2018-08-24T16:15:34.327Z,43.07
2018-08-24T16:18:07.744Z,44.09
2018-08-24T16:20:35.843Z,42.71
2018-08-24T16:23:03.927Z,43.55
2018-08-24T16:25:32.091Z,43.24
2018-08-24T16:28:00.116Z,44.04
2018-08-24T16:30:28.215Z,44.63
2018-08-24T16:32:56.308Z,44.35
2018-08-24T16:35:24.404Z,44.65
2018-08-24T16:37:52.562Z,44.47
2018-08-24T16:40:20.648Z,45.00
2018-08-24T16:42:48.715Z,44.26
2018-08-24T16:45:16.796Z,44.74
2018-08-24T16:47:44.862Z,44.61
2018-08-24T16:50:21.001Z,44.22
2018-08-24T16:53:19.964Z,43.95
2018-08-24T16:55:48.420Z,44.90
2018-08-24T16:58:16.495Z,44.44
2018-08-24T17:00:44.626Z,47.10
2018-08-24T17:03:12.760Z,46.97
2018-08-24T17:05:40.892Z,47.23
2018-08-24T17:08:09.374Z,48.23
2018-08-24T17:10:37.568Z,48.83
2018-08-24T17:13:05.655Z,49.02
2018-08-24T17:15:33.936Z,49.66
2018-08-24T17:18:02.131Z,49.39
2018-08-24T17:20:30.231Z,50.57
2018-08-24T17:22:58.347Z,50.61
2018-08-24T17:25:26.511Z,49.43
2018-08-24T17:27:54.615Z,49.98
2018-08-24T17:30:22.768Z,50.00
2018-08-24T17:32:50.946Z,49.86
2018-08-24T17:35:19.527Z,50.07
2018-08-24T17:37:48.527Z,49.71
2018-08-24T17:40:16.656Z,49.39
2018-08-24T17:43:25.989Z,50.40
2018-08-24T17:46:18.494Z,50.43
2018-08-24T17:48:46.609Z,49.81
2018-08-24T17:51:14.730Z,49.91
2018-08-24T17:53:42.817Z,50.01
2018-08-24T17:56:10.989Z,50.38
2018-08-24T17:58:39.145Z,50.38
2018-08-24T18:01:07.658Z,50.43
2018-08-24T18:03:35.809Z,50.48
2018-08-24T18:06:04.014Z,50.40
2018-08-24T18:08:32.114Z,50.86
2018-08-24T18:11:00.418Z,50.35
2018-08-24T18:13:28.641Z,50.52
2018-08-24T18:15:57.569Z,50.39
2018-08-24T18:18:26.040Z,50.23
2018-08-24T18:20:54.121Z,49.85
2018-08-24T18:23:22.200Z,49.48
2018-08-24T18:25:50.603Z,50.70
2018-08-24T18:28:18.724Z,50.02
2018-08-24T18:30:46.884Z,50.21
2018-08-24T18:33:14.991Z,50.57
2018-08-24T18:35:43.148Z,50.42
2018-08-24T18:38:11.348Z,50.11
2018-08-24T18:40:39.673Z,50.82
2018-08-24T18:43:07.871Z,51.05
2018-08-24T18:45:36.061Z,50.35
2018-08-24T18:48:04.355Z,50.04
2018-08-24T18:50:32.559Z,50.10
2018-08-24T18:53:00.709Z,50.15
2018-08-24T18:55:32.346Z,50.60
2018-08-24T18:58:00.572Z,50.30
2018-08-24T19:00:28.651Z,50.15
2018-08-24T19:02:56.899Z,50.28
2018-08-24T19:05:25.100Z,49.77
2018-08-24T19:07:57.379Z,50.06
2018-08-24T19:10:26.500Z,49.78
2018-08-24T19:12:54.682Z,50.17
2018-08-24T19:15:22.935Z,49.76
2018-08-24T19:17:56.328Z,49.04
2018-08-24T19:20:29.810Z,49.17
2018-08-24T19:22:57.931Z,49.21
2018-08-24T19:25:26.206Z,49.32
2018-08-24T19:27:59.779Z,48.40
2018-08-24T19:30:34.739Z,48.85
2018-08-24T19:33:03.244Z,48.47
2018-08-24T19:35:31.700Z,47.47
2018-08-24T19:37:59.867Z,46.59
2018-08-24T19:40:33.182Z,46.63
2018-08-24T19:43:01.279Z,46.41
2018-08-24T19:45:35.947Z,46.44
2018-08-24T19:48:09.455Z,45.59
2018-08-24T19:50:37.612Z,43.34
2018-08-24T19:53:05.806Z,43.39
2018-08-24T19:55:33.869Z,42.83
2018-08-24T19:58:07.251Z,40.70
2018-08-24T20:00:35.458Z,41.75
2018-08-24T20:03:03.483Z,41.42
2018-08-24T20:05:31.570Z,41.54
2018-08-24T20:08:05.095Z,41.33
2018-08-24T20:10:33.226Z,40.42
2018-08-24T20:13:01.333Z,40.72
2018-08-24T20:15:34.614Z,40.92
2018-08-24T20:18:02.711Z,40.91
2018-08-24T20:20:31.015Z,40.57
2018-08-24T20:22:59.138Z,40.95
2018-08-24T20:25:27.223Z,42.03
2018-08-24T20:27:55.468Z,41.49
2018-08-24T20:30:23.604Z,41.05
2018-08-24T20:32:51.680Z,40.65
2018-08-24T20:35:20.150Z,40.95
2018-08-24T20:37:49.362Z,41.48
2018-08-24T20:40:17.501Z,40.84
2018-08-24T20:42:45.594Z,40.88
2018-08-24T20:45:13.679Z,40.37
2018-08-24T20:47:41.806Z,40.63
2018-08-24T20:50:09.884Z,40.37
2018-08-24T20:52:38.126Z,40.55
2018-08-24T20:55:06.341Z,40.16
2018-08-24T20:57:34.440Z,40.53
2018-08-24T21:00:02.653Z,39.79
2018-08-24T21:02:30.774Z,40.77
2018-08-24T21:04:58.872Z,41.03
2018-08-24T21:07:27.754Z,40.57
2018-08-24T21:09:55.883Z,40.19
2018-08-24T21:12:24.035Z,40.54
2018-08-24T21:14:52.191Z,41.24
2018-08-24T21:17:20.285Z,40.50
2018-08-24T21:19:49.442Z,40.77
2018-08-24T21:22:17.796Z,40.36
2018-08-24T21:24:46.096Z,40.16
2018-08-24T21:27:14.217Z,40.16
2018-08-24T21:29:42.395Z,40.11
2018-08-24T21:32:10.541Z,40.21
2018-08-24T21:34:38.791Z,40.16
2018-08-24T21:37:06.928Z,41.25
2018-08-24T21:39:35.021Z,40.51
2018-08-24T21:42:03.226Z,40.38
2018-08-24T21:44:31.303Z,40.80
2018-08-24T21:46:59.753Z,41.09
2018-08-24T21:49:28.208Z,42.56
2018-08-24T21:51:56.312Z,43.95
2018-08-24T21:54:24.463Z,44.94
2018-08-24T21:56:52.593Z,44.81
2018-08-24T21:59:20.770Z,45.07
2018-08-24T22:01:49.510Z,44.72
2018-08-24T22:04:17.765Z,44.88
2018-08-24T22:06:45.856Z,46.10
2018-08-24T22:09:14.064Z,45.36
2018-08-24T22:11:42.580Z,45.73
2018-08-24T22:14:10.749Z,45.77
2018-08-24T22:16:38.880Z,45.76
2018-08-24T22:19:07.012Z,45.92
2018-08-24T22:21:35.106Z,46.15
2018-08-24T22:24:03.330Z,45.83
2018-08-24T22:26:31.625Z,46.42
2018-08-24T22:28:59.843Z,45.78
2018-08-24T22:31:27.995Z,46.47
2018-08-24T22:33:56.288Z,45.62
2018-08-24T22:36:24.407Z,45.49
2018-08-24T22:38:52.536Z,44.94
2018-08-24T22:41:20.754Z,45.87
2018-08-24T22:43:51.583Z,44.84
2018-08-24T22:46:19.806Z,45.31
2018-08-24T22:48:47.874Z,45.54
2018-08-24T22:51:16.129Z,44.42
2018-08-24T22:53:44.279Z,44.72
2018-08-24T22:56:12.342Z,44.79
2018-08-24T22:58:40.670Z,43.53
2018-08-24T23:01:09.190Z,44.93
2018-08-24T23:03:37.407Z,44.91
2018-08-24T23:06:06.076Z,45.16
2018-08-24T23:08:34.208Z,45.63
2018-08-24T23:11:02.418Z,45.96
2018-08-24T23:13:30.597Z,45.33
2018-08-24T23:15:58.772Z,45.26
2018-08-24T23:18:26.964Z,45.85
2018-08-24T23:20:55.122Z,45.35
2018-08-24T23:23:23.265Z,45.65
2018-08-24T23:25:51.348Z,46.06
2018-08-24T23:29:40.335Z,46.61
2018-08-24T23:32:08.475Z,46.18
2018-08-24T23:34:37.421Z,46.06
2018-08-24T23:37:07.036Z,46.05
2018-08-24T23:39:35.207Z,46.03
2018-08-24T23:42:03.455Z,46.32
2018-08-24T23:44:31.850Z,46.80
2018-08-24T23:47:00.040Z,46.18
2018-08-24T23:49:28.210Z,46.74
2018-08-24T23:51:56.354Z,47.31
2018-08-24T23:54:24.499Z,47.89
2018-08-24T23:56:52.617Z,47.68
2018-08-24T23:59:20.761Z,46.86
